Time;durP1;ratioP1;P1;durP2;ratioP2;P2;SDS_P1;SDS_P2;PMS_P1;PMS_P2;Temp;Humidity;BMP_temperature;BMP_pressure;BME280_temperature;BME280_humidity;BME280_pressure;Samples;Min_cycle;Max_cycle;Signal;HPM_P1;HPM_P2
2021/11/26 00:02:09;;;;;;;110.68;29.83;;;;;;;2.97;100.00;100528.06;5027900;28;20511;-70
2021/11/26 00:04:35;;;;;;;94.50;30.73;;;;;;;2.96;100.00;100528.16;5037547;28;20029;-70
2021/11/26 00:07:00;;;;;;;96.93;30.92;;;;;;;2.95;100.00;100531.69;5030954;28;20033;-70
2021/11/26 00:09:26;;;;;;;107.28;34.42;;;;;;;3.05;100.00;100530.91;5029292;28;20434;-70
2021/11/26 00:11:51;;;;;;;97.88;31.85;;;;;;;3.00;100.00;100524.47;5031477;28;20036;-70
2021/11/26 00:14:21;;;;;;;106.63;31.90;;;;;;;3.03;100.00;100525.06;5042725;28;20088;-70
2021/11/26 00:16:54;;;;;;;94.93;30.45;;;;;;;3.04;100.00;100520.75;5024814;28;20075;-70
2021/11/26 00:19:19;;;;;;;104.05;32.30;;;;;;;3.01;100.00;100515.84;5028688;28;20033;-71
2021/11/26 00:21:45;;;;;;;93.30;30.77;;;;;;;3.00;100.00;100516.78;5026536;28;20624;-70
2021/11/26 00:24:13;;;;;;;108.10;31.45;;;;;;;3.03;100.00;100509.69;5031676;28;20044;-70
2021/11/26 00:26:38;;;;;;;84.03;28.35;;;;;;;3.01;100.00;100508.16;5030787;28;20033;-70
2021/11/26 00:29:04;;;;;;;97.35;29.77;;;;;;;3.02;100.00;100502.13;5030925;28;20040;-70
2021/11/26 00:31:30;;;;;;;93.22;30.60;;;;;;;3.10;100.00;100494.66;5036739;28;20072;-70
2021/11/26 00:33:55;;;;;;;80.20;28.27;;;;;;;3.11;100.00;100488.63;5029992;28;20569;-71
2021/11/26 00:36:21;;;;;;;89.55;30.35;;;;;;;3.11;100.00;100483.50;5028622;28;20395;-70
2021/11/26 00:38:46;;;;;;;89.63;29.30;;;;;;;3.11;100.00;100478.38;5035961;28;20033;-70
2021/11/26 00:41:12;;;;;;;87.32;28.15;;;;;;;3.09;100.00;100475.94;5022269;28;20060;-70
2021/11/26 00:43:38;;;;;;;86.88;29.70;;;;;;;3.13;100.00;100479.06;5027686;28;20048;-70
2021/11/26 00:46:03;;;;;;;81.32;29.25;;;;;;;3.02;100.00;100466.25;5026944;28;20040;-71
2021/11/26 00:48:29;;;;;;;86.18;27.48;;;;;;;3.00;100.00;100463.00;5033994;28;20033;-70
2021/11/26 00:50:54;;;;;;;80.78;28.75;;;;;;;3.09;100.00;100455.44;5025536;28;20041;-70
2021/11/26 00:53:20;;;;;;;87.28;30.08;;;;;;;3.02;100.00;100449.13;5031162;28;20025;-70
2021/11/26 00:55:46;;;;;;;84.28;28.92;;;;;;;2.98;100.00;100450.31;5032322;28;20203;-70
2021/11/26 00:58:11;;;;;;;80.55;28.45;;;;;;;2.94;100.00;100446.34;5024924;28;20029;-71
2021/11/26 01:00:38;;;;;;;85.60;28.48;;;;;;;2.92;100.00;100438.75;5026043;28;20072;-70
2021/11/26 01:03:05;;;;;;;85.07;29.10;;;;;;;2.85;100.00;100440.16;5025663;28;20030;-71
2021/11/26 01:05:31;;;;;;;87.18;28.90;;;;;;;2.85;100.00;100432.47;5028712;28;20032;-70
2021/11/26 01:07:57;;;;;;;70.28;26.58;;;;;;;2.80;100.00;100439.66;5032483;28;20036;-70
2021/11/26 01:10:24;;;;;;;80.15;27.75;;;;;;;2.77;100.00;100431.41;5026141;28;20041;-71
2021/11/26 01:12:51;;;;;;;81.78;27.63;;;;;;;2.72;100.00;100424.88;5015798;28;20380;-70
2021/11/26 01:15:19;;;;;;;75.22;27.13;;;;;;;2.71;100.00;100430.09;5024946;28;20321;-70
2021/11/26 01:17:46;;;;;;;78.32;26.30;;;;;;;2.68;100.00;100427.78;5024269;28;20026;-70
2021/11/26 01:20:16;;;;;;;79.47;26.85;;;;;;;2.69;100.00;100419.16;5022036;28;20038;-70
2021/11/26 01:22:42;;;;;;;68.82;26.08;;;;;;;2.77;100.00;100414.31;5026524;28;20053;-70
2021/11/26 01:25:10;;;;;;;86.05;27.60;;;;;;;2.65;100.00;100407.53;5024557;28;20706;-70
2021/11/26 01:27:36;;;;;;;70.57;25.75;;;;;;;2.67;100.00;100398.78;5025643;28;20047;-70
2021/11/26 01:30:10;;;;;;;80.40;28.05;;;;;;;2.62;100.00;100389.81;5022967;28;20033;-70
2021/11/26 01:32:36;;;;;;;75.10;27.27;;;;;;;2.58;100.00;100391.81;5019726;28;20504;-70
2021/11/26 01:35:02;;;;;;;64.72;26.35;;;;;;;2.59;100.00;100390.06;5029148;28;20030;-71
2021/11/26 01:37:27;;;;;;;83.82;27.92;;;;;;;2.59;99.98;100390.06;5026176;28;20036;-70
2021/11/26 01:39:54;;;;;;;61.85;24.90;;;;;;;2.52;100.00;100387.97;5027560;28;20458;-70
2021/11/26 01:42:19;;;;;;;72.75;27.27;;;;;;;2.55;100.00;100383.56;5025995;28;20079;-70
2021/11/26 01:44:45;;;;;;;85.57;27.58;;;;;;;2.52;100.00;100377.72;5027195;28;20052;-70
2021/11/26 01:47:14;;;;;;;73.50;27.88;;;;;;;2.53;100.00;100371.66;5022123;28;20041;-70
2021/11/26 01:49:40;;;;;;;71.18;27.35;;;;;;;2.51;100.00;100368.41;5013484;28;20462;-70
2021/11/26 01:52:06;;;;;;;71.95;27.95;;;;;;;2.49;100.00;100361.78;5010320;28;20040;-70
2021/11/26 01:54:32;;;;;;;73.25;27.83;;;;;;;2.50;100.00;100363.41;5029305;28;20559;-70
2021/11/26 01:56:57;;;;;;;77.50;30.75;;;;;;;2.54;100.00;100352.00;5028638;28;20099;-70
2021/11/26 01:59:23;;;;;;;72.97;28.13;;;;;;;2.59;100.00;100356.78;5024686;28;20033;-70
2021/11/26 02:01:49;;;;;;;73.75;29.23;;;;;;;2.56;99.96;100351.88;5024062;28;20112;-70
2021/11/26 02:04:14;;;;;;;72.57;27.08;;;;;;;2.64;99.79;100344.47;5009654;28;20025;-70
2021/11/26 02:06:40;;;;;;;66.13;25.85;;;;;;;2.56;100.00;100351.88;5026638;28;20044;-70
2021/11/26 02:09:06;;;;;;;66.88;27.45;;;;;;;2.58;99.77;100343.19;5027194;28;20038;-70
2021/11/26 02:11:31;;;;;;;59.40;26.65;;;;;;;2.58;99.92;100332.94;5011636;28;20034;-71
2021/11/26 02:13:57;;;;;;;67.63;26.92;;;;;;;2.65;99.92;100325.59;5025234;28;20111;-71
2021/11/26 02:16:22;;;;;;;66.28;27.00;;;;;;;2.67;99.72;100324.53;5026862;28;20030;-70
2021/11/26 02:18:49;;;;;;;69.63;27.52;;;;;;;2.55;99.97;100317.81;5035592;28;20406;-70
2021/11/26 02:21:17;;;;;;;69.20;26.23;;;;;;;2.57;100.00;100304.91;5028478;28;20025;-70
2021/11/26 02:23:42;;;;;;;72.97;27.48;;;;;;;2.66;100.00;100310.13;5034158;28;20036;-71
2021/11/26 02:26:08;;;;;;;63.17;25.67;;;;;;;2.63;100.00;100301.88;5034122;28;20395;-70
2021/11/26 02:28:33;;;;;;;60.17;25.48;;;;;;;2.63;99.90;100300.09;5034013;28;20044;-71
2021/11/26 02:30:59;;;;;;;59.40;24.73;;;;;;;2.60;100.00;100294.41;5032521;28;20047;-70
2021/11/26 02:33:24;;;;;;;49.45;23.52;;;;;;;2.53;100.00;100287.19;5022574;28;20449;-70
2021/11/26 02:35:52;;;;;;;53.45;23.05;;;;;;;2.51;100.00;100286.50;5037748;28;20025;-70
2021/11/26 02:38:21;;;;;;;51.42;22.98;;;;;;;2.47;100.00;100277.44;5036957;28;20105;-71
2021/11/26 02:40:47;;;;;;;54.25;22.45;;;;;;;2.44;100.00;100275.09;5034056;28;20056;-70
2021/11/26 02:43:15;;;;;;;49.38;23.08;;;;;;;2.51;100.00;100265.22;5031732;28;20026;-70
2021/11/26 02:45:42;;;;;;;50.60;22.15;;;;;;;2.43;100.00;100262.41;5024279;28;20120;-70
2021/11/26 02:48:08;;;;;;;46.05;21.80;;;;;;;2.48;100.00;100261.13;5036850;28;20090;-70
2021/11/26 02:50:34;;;;;;;54.05;21.70;;;;;;;2.50;100.00;100254.16;5034765;28;20029;-71
2021/11/26 02:53:00;;;;;;;58.20;21.95;;;;;;;2.48;100.00;100252.66;5034909;28;20026;-70
2021/11/26 02:55:31;;;;;;;48.10;21.67;;;;;;;2.42;100.00;100248.81;5033216;28;20034;-70
2021/11/26 02:57:57;;;;;;;55.58;21.15;;;;;;;2.49;100.00;100241.50;5039758;28;20509;-70
2021/11/26 03:00:25;;;;;;;56.33;23.67;;;;;;;2.59;100.00;100244.97;5026668;28;20037;-70
2021/11/26 03:02:52;;;;;;;49.72;24.30;;;;;;;2.51;99.44;100235.31;5034100;28;20070;-70
2021/11/26 03:05:17;;;;;;;49.78;22.17;;;;;;;2.54;100.00;100239.38;5029852;28;20496;-70
2021/11/26 03:07:43;;;;;;;49.08;21.92;;;;;;;2.57;99.89;100225.53;5036213;28;20111;-70
2021/11/26 03:10:10;;;;;;;45.60;20.60;;;;;;;2.49;100.00;100221.81;5031381;28;20036;-70
2021/11/26 03:12:36;;;;;;;46.95;20.05;;;;;;;2.45;99.97;100220.44;5038688;28;20484;-70
2021/11/26 03:15:03;;;;;;;45.85;22.98;;;;;;;2.46;100.00;100218.69;5034473;28;20434;-70
2021/11/26 03:17:28;;;;;;;52.40;22.77;;;;;;;2.43;100.00;100213.78;5030629;28;20041;-70
2021/11/26 03:19:54;;;;;;;58.08;23.95;;;;;;;2.45;100.00;100212.75;5036242;28;20029;-70
2021/11/26 03:22:19;;;;;;;57.85;25.10;;;;;;;2.43;100.00;100216.34;5027621;28;20499;-70
2021/11/26 03:24:45;;;;;;;71.20;26.35;;;;;;;2.50;100.00;100209.81;5028509;28;20033;-70
2021/11/26 03:27:10;;;;;;;70.32;26.55;;;;;;;2.60;100.00;100208.19;5032894;28;20462;-70
2021/11/26 03:29:36;;;;;;;78.00;27.65;;;;;;;2.68;100.00;100210.97;5030867;28;20036;-71
2021/11/26 03:32:01;;;;;;;64.75;26.75;;;;;;;2.57;100.00;100203.31;5028124;28;20037;-70
2021/11/26 03:34:27;;;;;;;62.45;27.55;;;;;;;2.57;100.00;100198.19;5028036;28;20524;-70
2021/11/26 03:36:53;;;;;;;84.85;29.27;;;;;;;2.59;100.00;100188.66;5013116;28;20033;-70
2021/11/26 03:39:18;;;;;;;70.97;30.13;;;;;;;2.56;100.00;100185.50;5030040;28;20234;-70
2021/11/26 03:41:44;;;;;;;72.45;29.52;;;;;;;2.63;100.00;100177.22;5026271;28;20029;-70
2021/11/26 03:44:10;;;;;;;86.10;30.42;;;;;;;2.64;100.00;100170.38;5031688;28;20052;-70
2021/11/26 03:46:35;;;;;;;80.63;29.85;;;;;;;2.76;100.00;100169.41;5027779;28;20074;-70
2021/11/26 03:49:01;;;;;;;82.40;32.33;;;;;;;2.65;100.00;100165.13;5030201;28;20080;-70
2021/11/26 03:51:27;;;;;;;79.70;32.85;;;;;;;2.64;100.00;100158.38;5029411;28;20136;-70
2021/11/26 03:53:53;;;;;;;85.95;34.33;;;;;;;2.67;100.00;100159.88;5014206;28;20028;-70
2021/11/26 03:56:18;;;;;;;90.68;36.63;;;;;;;2.65;100.00;100151.50;5026980;28;20424;-70
2021/11/26 03:58:44;;;;;;;84.55;31.30;;;;;;;2.71;100.00;100149.28;5025662;28;20098;-70
2021/11/26 04:01:09;;;;;;;78.25;31.23;;;;;;;2.76;100.00;100136.13;5028047;28;20088;-70
2021/11/26 04:03:35;;;;;;;72.40;29.48;;;;;;;2.65;100.00;100134.41;5033706;28;20021;-70
2021/11/26 04:06:00;;;;;;;89.25;34.15;;;;;;;2.62;100.00;100129.53;5027080;28;20384;-70
2021/11/26 04:08:26;;;;;;;87.05;33.83;;;;;;;2.60;100.00;100121.16;5028154;28;20084;-70
2021/11/26 04:10:52;;;;;;;103.03;40.70;;;;;;;2.66;100.00;100119.88;5024740;28;20530;-70
2021/11/26 04:13:18;;;;;;;95.43;35.83;;;;;;;2.67;100.00;100118.91;5028761;28;20025;-70
2021/11/26 04:15:44;;;;;;;99.93;37.33;;;;;;;2.82;100.00;100110.00;5025001;28;20064;-70
2021/11/26 04:18:10;;;;;;;82.88;33.13;;;;;;;2.80;100.00;100099.09;5028154;28;20067;-70
2021/11/26 04:20:36;;;;;;;70.47;31.40;;;;;;;2.90;100.00;100102.56;5025826;28;20032;-71
2021/11/26 04:23:02;;;;;;;76.28;32.50;;;;;;;2.82;100.00;100092.09;5026645;28;20037;-70
2021/11/26 04:25:29;;;;;;;129.57;47.92;;;;;;;2.80;100.00;100093.16;5026373;28;20048;-70
2021/11/26 04:27:55;;;;;;;85.50;34.80;;;;;;;2.84;100.00;100086.84;5022785;28;20045;-70
2021/11/26 04:30:22;;;;;;;110.47;43.90;;;;;;;2.84;100.00;100086.84;5026651;28;20029;-70
2021/11/26 04:32:49;;;;;;;92.00;38.97;;;;;;;2.76;100.00;100076.41;5010572;28;20401;-70
2021/11/26 04:35:15;;;;;;;74.60;31.15;;;;;;;2.72;100.00;100075.84;5025769;28;20108;-70
2021/11/26 04:37:41;;;;;;;73.20;31.05;;;;;;;2.85;100.00;100068.00;5026246;28;20040;-71
2021/11/26 04:40:11;;;;;;;63.15;27.73;;;;;;;2.75;100.00;100065.38;5028168;28;20045;-71
2021/11/26 04:42:37;;;;;;;102.82;41.08;;;;;;;2.79;100.00;100055.66;5026300;28;20408;-70
2021/11/26 04:45:05;;;;;;;65.47;29.23;;;;;;;2.83;100.00;100051.94;5010105;28;20029;-71
2021/11/26 04:47:31;;;;;;;63.97;30.30;;;;;;;2.84;100.00;100046.69;5028116;28;20431;-71
2021/11/26 04:49:56;;;;;;;72.15;30.80;;;;;;;2.82;100.00;100043.44;5027355;28;20517;-71
2021/11/26 04:52:22;;;;;;;63.28;30.80;;;;;;;2.82;100.00;100033.19;5028053;28;20040;-71
2021/11/26 04:54:47;;;;;;;96.82;40.42;;;;;;;2.83;100.00;100032.28;5026276;28;20104;-71
2021/11/26 04:57:13;;;;;;;77.65;33.75;;;;;;;2.90;100.00;100030.84;5025982;28;20032;-70
2021/11/26 04:59:38;;;;;;;84.63;35.38;;;;;;;3.00;100.00;100022.41;5027386;28;20034;-71
2021/11/26 05:02:04;;;;;;;71.90;33.10;;;;;;;3.02;100.00;100023.09;5026234;28;20037;-71
2021/11/26 05:04:29;;;;;;;53.40;25.15;;;;;;;3.07;100.00;100021.78;5027272;28;20104;-71
2021/11/26 05:06:55;;;;;;;64.40;25.90;;;;;;;3.01;100.00;100026.56;5008671;28;20033;-71
2021/11/26 05:09:21;;;;;;;50.10;23.30;;;;;;;2.95;100.00;100021.97;5025117;28;20480;-71
2021/11/26 05:11:47;;;;;;;48.33;23.88;;;;;;;2.92;100.00;100018.72;5024864;28;20113;-71
2021/11/26 05:14:18;;;;;;;60.03;25.60;;;;;;;2.86;100.00;100014.09;5026169;28;20280;-71
2021/11/26 05:16:44;;;;;;;57.05;25.63;;;;;;;2.89;100.00;100011.28;5032485;28;20535;-71
2021/11/26 05:19:09;;;;;;;53.53;24.55;;;;;;;2.89;100.00;100013.84;5026679;28;20029;-71
2021/11/26 05:21:35;;;;;;;55.67;25.20;;;;;;;2.91;100.00;100009.41;5004459;28;20044;-71
2021/11/26 05:24:00;;;;;;;52.50;25.77;;;;;;;2.95;100.00;100001.47;5028792;28;20032;-71
2021/11/26 05:26:26;;;;;;;58.03;25.10;;;;;;;2.91;100.00;99990.66;5026490;28;20040;-71
2021/11/26 05:28:52;;;;;;;51.25;23.40;;;;;;;2.96;100.00;99991.09;5031641;28;20029;-71
2021/11/26 05:31:19;;;;;;;57.72;25.10;;;;;;;2.95;100.00;99991.22;5026622;28;20034;-71
2021/11/26 05:33:44;;;;;;;48.83;23.35;;;;;;;2.92;100.00;99989.75;5032319;28;20480;-71
2021/11/26 05:36:10;;;;;;;56.53;24.20;;;;;;;3.06;100.00;99981.72;5027706;28;20040;-71
2021/11/26 05:38:35;;;;;;;53.55;22.95;;;;;;;3.06;100.00;99984.28;5040064;28;20511;-71
2021/11/26 05:41:01;;;;;;;50.83;22.92;;;;;;;3.13;100.00;99989.72;5026684;28;20082;-71
2021/11/26 05:43:27;;;;;;;56.83;23.75;;;;;;;3.10;100.00;99979.72;5031726;28;20504;-71
2021/11/26 05:45:52;;;;;;;49.42;23.52;;;;;;;3.04;100.00;99983.59;5031777;28;20020;-71
2021/11/26 05:48:18;;;;;;;51.92;23.38;;;;;;;3.10;100.00;99975.38;5014005;28;20064;-71
2021/11/26 05:50:44;;;;;;;48.55;22.55;;;;;;;3.08;100.00;99973.91;5028537;28;20025;-71
2021/11/26 05:53:09;;;;;;;49.45;22.33;;;;;;;3.02;100.00;99972.66;5035185;28;20040;-71
2021/11/26 05:55:35;;;;;;;52.05;23.23;;;;;;;3.01;100.00;99970.22;5027895;28;20033;-71
2021/11/26 05:58:01;;;;;;;48.25;21.65;;;;;;;3.01;100.00;99965.91;5026944;28;20041;-71
2021/11/26 06:00:29;;;;;;;51.00;21.67;;;;;;;3.12;100.00;99965.03;5035315;28;20029;-71
2021/11/26 06:02:55;;;;;;;43.28;21.70;;;;;;;3.06;100.00;99956.09;5029972;28;20032;-71
2021/11/26 06:05:21;;;;;;;54.35;22.63;;;;;;;3.06;100.00;99957.84;5030897;28;20037;-71
2021/11/26 06:07:47;;;;;;;47.03;21.05;;;;;;;3.10;100.00;99957.44;5030873;28;20083;-71
2021/11/26 06:10:14;;;;;;;42.88;20.30;;;;;;;3.06;100.00;99950.16;5031494;28;20044;-71
2021/11/26 06:12:46;;;;;;;44.40;21.10;;;;;;;3.17;100.00;99949.28;5016474;28;20033;-71
2021/11/26 06:15:13;;;;;;;43.88;19.40;;;;;;;3.11;100.00;99946.28;5032045;28;20128;-71
2021/11/26 06:17:40;;;;;;;45.65;21.58;;;;;;;3.25;100.00;99936.63;5031885;28;20517;-72
2021/11/26 06:20:06;;;;;;;37.80;18.27;;;;;;;3.12;100.00;99934.28;5014924;28;20124;-71
2021/11/26 06:22:32;;;;;;;35.70;18.17;;;;;;;3.16;100.00;99927.94;5032277;28;20099;-71
2021/11/26 06:24:57;;;;;;;34.47;17.75;;;;;;;3.05;100.00;99925.47;5025431;28;20475;-72
2021/11/26 06:27:23;;;;;;;37.00;19.73;;;;;;;3.10;100.00;99918.22;5021241;28;20071;-71
2021/11/26 06:29:49;;;;;;;37.45;18.38;;;;;;;3.07;100.00;99918.47;5029377;28;20422;-71
2021/11/26 06:32:14;;;;;;;40.25;19.40;;;;;;;3.23;100.00;99916.25;5035266;28;20029;-71
2021/11/26 06:34:40;;;;;;;41.78;19.42;;;;;;;3.18;100.00;99915.81;5034585;28;20570;-71
2021/11/26 06:37:05;;;;;;;34.33;17.60;;;;;;;3.09;100.00;99907.19;5036713;28;20037;-71
2021/11/26 06:39:31;;;;;;;39.67;18.05;;;;;;;3.19;100.00;99909.75;5046156;28;20475;-71
2021/11/26 06:41:57;;;;;;;40.83;18.33;;;;;;;3.26;100.00;99905.75;5037741;28;20029;-71
2021/11/26 06:44:22;;;;;;;32.10;17.33;;;;;;;3.21;100.00;99901.97;5029308;28;20110;-71
2021/11/26 06:46:49;;;;;;;31.90;16.48;;;;;;;3.23;100.00;99889.81;5033636;28;20033;-71
2021/11/26 06:49:14;;;;;;;35.90;15.45;;;;;;;3.21;100.00;99892.50;5016458;28;20083;-71
2021/11/26 06:51:40;;;;;;;31.48;14.63;;;;;;;3.19;100.00;99879.03;5032359;28;20076;-72
2021/11/26 06:54:05;;;;;;;31.08;13.75;;;;;;;3.18;100.00;99872.25;5031029;28;20103;-72
2021/11/26 06:56:31;;;;;;;39.38;14.57;;;;;;;3.20;100.00;99864.44;5030650;28;20079;-72
2021/11/26 06:58:59;;;;;;;31.75;13.20;;;;;;;3.20;100.00;99862.72;5034511;28;20052;-72
2021/11/26 07:01:25;;;;;;;30.48;12.45;;;;;;;3.22;100.00;99862.56;5012945;28;20079;-72
2021/11/26 07:03:50;;;;;;;31.70;12.40;;;;;;;3.10;100.00;99854.19;5033285;28;20033;-71
2021/11/26 07:06:17;;;;;;;27.95;11.55;;;;;;;3.07;100.00;99854.44;5033943;28;20061;-72
2021/11/26 07:08:42;;;;;;;23.60;10.98;;;;;;;3.04;100.00;99859.84;5022363;28;20090;-72
2021/11/26 07:11:08;;;;;;;21.17;10.77;;;;;;;3.05;100.00;99861.44;5033614;28;20468;-71
2021/11/26 07:13:33;;;;;;;37.33;11.35;;;;;;;3.00;100.00;99850.78;5038867;28;20037;-71
2021/11/26 07:15:59;;;;;;;26.65;10.88;;;;;;;2.99;100.00;99860.22;5026431;28;20110;-71
2021/11/26 07:18:24;;;;;;;28.73;11.90;;;;;;;3.08;100.00;99846.63;5037971;28;20064;-71
2021/11/26 07:20:50;;;;;;;24.40;10.88;;;;;;;3.07;100.00;99842.44;5027200;28;20026;-71
2021/11/26 07:23:15;;;;;;;31.33;13.98;;;;;;;3.18;100.00;99843.28;5026796;28;20033;-71
2021/11/26 07:25:41;;;;;;;29.08;12.73;;;;;;;3.20;99.61;99839.66;5025963;28;20033;-71
2021/11/26 07:28:07;;;;;;;36.50;14.73;;;;;;;3.26;99.50;99830.63;5029367;28;20037;-71
2021/11/26 07:30:32;;;;;;;37.30;15.95;;;;;;;3.29;99.57;99838.03;5027016;28;20504;-71
2021/11/26 07:32:58;;;;;;;35.35;17.67;;;;;;;3.28;99.54;99832.13;5030369;28;20135;-71
2021/11/26 07:35:23;;;;;;;45.85;17.20;;;;;;;3.28;99.78;99828.75;5027211;28;20041;-71
2021/11/26 07:37:49;;;;;;;39.05;17.25;;;;;;;3.27;99.42;99830.47;5012628;28;20057;-71
2021/11/26 07:40:15;;;;;;;39.63;17.88;;;;;;;3.30;99.63;99827.66;5032648;28;20033;-71
2021/11/26 07:42:42;;;;;;;50.05;18.38;;;;;;;3.30;99.40;99829.44;5031321;28;20041;-71
2021/11/26 07:45:09;;;;;;;53.22;19.70;;;;;;;3.23;99.56;99826.56;5032151;28;20045;-71
2021/11/26 07:47:36;;;;;;;54.97;20.55;;;;;;;3.26;99.48;99823.75;5027994;28;20029;-71
2021/11/26 07:50:02;;;;;;;55.45;21.73;;;;;;;3.37;99.30;99817.72;5003043;28;20406;-71
2021/11/26 07:52:27;;;;;;;63.22;23.73;;;;;;;3.41;98.83;99800.28;5016322;28;20407;-71
2021/11/26 07:54:53;;;;;;;48.63;21.00;;;;;;;3.40;98.34;99811.50;5033616;28;20033;-71
2021/11/26 07:57:18;;;;;;;57.17;20.20;;;;;;;3.34;98.35;99809.47;5029915;28;20037;-71
2021/11/26 07:59:44;;;;;;;54.92;21.70;;;;;;;3.36;98.18;99797.34;5015616;28;20035;-71
2021/11/26 08:02:10;;;;;;;45.42;19.42;;;;;;;3.39;98.50;99789.34;5036237;28;20021;-71
2021/11/26 08:04:36;;;;;;;47.95;18.98;;;;;;;3.29;98.47;99782.47;5033619;28;20395;-71
2021/11/26 08:07:01;;;;;;;46.15;19.27;;;;;;;3.20;98.82;99785.84;5037250;28;20557;-71
2021/11/26 08:09:27;;;;;;;58.83;19.23;;;;;;;3.21;99.03;99779.78;5031492;28;20033;-71
2021/11/26 08:11:54;;;;;;;41.45;18.25;;;;;;;3.23;99.05;99779.66;5028960;28;20040;-71
2021/11/26 08:14:20;;;;;;;42.42;17.45;;;;;;;3.24;98.86;99779.53;5030237;28;20047;-71
2021/11/26 08:16:47;;;;;;;36.85;16.60;;;;;;;3.28;98.96;99764.69;5037458;28;20049;-71
2021/11/26 08:19:13;;;;;;;40.10;16.13;;;;;;;3.24;98.65;99761.59;5037994;28;20037;-71
2021/11/26 08:21:39;;;;;;;45.83;16.52;;;;;;;3.28;98.27;99755.25;5034552;28;20388;-71
2021/11/26 08:24:06;;;;;;;39.10;16.23;;;;;;;3.26;97.84;99752.00;5040577;28;20017;-71
2021/11/26 08:26:32;;;;;;;45.00;17.48;;;;;;;3.39;97.25;99748.34;5010303;28;20086;-71
2021/11/26 08:28:58;;;;;;;38.35;14.77;;;;;;;3.24;97.24;99748.78;5017663;28;20099;-71
2021/11/26 08:31:24;;;;;;;43.42;15.43;;;;;;;3.25;97.60;99741.88;5037234;28;20116;-71
2021/11/26 08:33:49;;;;;;;35.03;14.82;;;;;;;3.25;97.27;99736.75;5036066;28;20025;-71
2021/11/26 08:36:15;;;;;;;38.17;13.90;;;;;;;3.31;96.96;99719.09;5019955;28;20037;-70
2021/11/26 08:38:40;;;;;;;37.13;12.85;;;;;;;3.32;97.20;99714.78;5031158;28;20061;-70
2021/11/26 08:41:06;;;;;;;35.70;12.80;;;;;;;3.35;96.50;99718.81;5022067;28;20033;-71
2021/11/26 08:43:31;;;;;;;31.55;13.98;;;;;;;3.29;95.99;99718.41;5011281;28;20040;-71
2021/11/26 08:45:57;;;;;;;38.45;12.45;;;;;;;3.28;96.42;99711.69;5028119;28;20466;-71
2021/11/26 08:48:22;;;;;;;38.20;13.45;;;;;;;3.30;97.28;99709.00;5027053;28;20511;-70
2021/11/26 08:50:49;;;;;;;40.38;12.98;;;;;;;3.30;95.80;99709.00;5028112;28;20025;-71
2021/11/26 08:53:15;;;;;;;41.67;12.27;;;;;;;3.39;95.29;99707.34;5026121;28;20065;-71
2021/11/26 08:55:46;;;;;;;34.70;11.75;;;;;;;3.28;95.50;99700.63;5029216;28;20339;-71
2021/11/26 08:58:13;;;;;;;36.38;12.80;;;;;;;3.38;95.27;99698.06;5026141;28;20040;-71
2021/11/26 09:00:40;;;;;;;34.72;11.80;;;;;;;3.27;95.49;99696.44;5007545;28;20555;-71
2021/11/26 09:03:06;;;;;;;47.35;14.10;;;;;;;3.31;95.79;99684.97;5030788;28;20033;-71
2021/11/26 09:05:33;;;;;;;30.98;13.10;;;;;;;3.38;95.04;99686.03;5024280;28;20036;-71
2021/11/26 09:08:04;;;;;;;34.17;12.32;;;;;;;3.41;95.42;99678.09;5033322;28;20484;-71
2021/11/26 09:10:36;;;;;;;32.80;12.40;;;;;;;3.41;95.10;99682.38;5021544;28;20026;-71
2021/11/26 09:13:03;;;;;;;46.35;12.63;;;;;;;3.36;94.79;99671.75;5024140;28;20035;-71
2021/11/26 09:15:29;;;;;;;29.15;12.32;;;;;;;3.31;95.47;99672.97;5025622;28;20061;-71
2021/11/26 09:17:55;;;;;;;37.67;13.15;;;;;;;3.32;95.26;99684.03;5032351;28;20417;-71
2021/11/26 09:20:20;;;;;;;41.42;14.07;;;;;;;3.30;95.41;99684.16;5030427;28;20022;-71
2021/11/26 09:22:46;;;;;;;32.03;13.18;;;;;;;3.37;95.26;99674.19;5034698;28;20507;-71
2021/11/26 09:25:13;;;;;;;35.95;13.75;;;;;;;3.38;94.63;99665.53;5025241;28;20525;-70
2021/11/26 09:27:39;;;;;;;38.85;14.02;;;;;;;3.40;94.33;99673.09;5026251;28;20037;-70
2021/11/26 09:30:08;;;;;;;44.15;12.98;;;;;;;3.43;94.50;99676.19;5031628;28;20029;-71
2021/11/26 09:32:34;;;;;;;46.47;14.50;;;;;;;3.42;94.65;99661.75;5031091;28;20375;-70
2021/11/26 09:34:59;;;;;;;41.10;14.02;;;;;;;3.36;94.38;99671.75;5025387;28;20116;-70
2021/11/26 09:37:25;;;;;;;38.92;14.65;;;;;;;3.38;93.60;99667.31;5026079;28;20333;-70
2021/11/26 09:39:50;;;;;;;41.65;13.93;;;;;;;3.52;93.10;99654.03;5027777;28;20036;-70
2021/11/26 09:42:16;;;;;;;46.08;15.20;;;;;;;3.37;93.68;99653.69;5032900;28;20216;-71
2021/11/26 09:44:44;;;;;;;53.45;14.55;;;;;;;3.42;93.25;99646.38;5032239;28;20040;-70
2021/11/26 09:47:09;;;;;;;42.28;14.88;;;;;;;3.42;93.77;99638.69;5049226;28;20037;-70
2021/11/26 09:49:35;;;;;;;46.05;16.10;;;;;;;3.54;92.15;99631.63;5031041;28;20394;-70
2021/11/26 09:52:01;;;;;;;41.83;16.45;;;;;;;3.44;92.05;99626.53;5033153;28;20035;-70
2021/11/26 09:54:27;;;;;;;36.55;17.00;;;;;;;3.46;92.14;99618.72;5029527;28;20100;-70
2021/11/26 09:56:53;;;;;;;46.33;18.08;;;;;;;3.47;91.52;99612.66;5008787;28;20030;-70
2021/11/26 09:59:19;;;;;;;52.92;18.42;;;;;;;3.43;91.97;99611.31;5035562;28;20029;-70
2021/11/26 10:01:45;;;;;;;55.50;17.50;;;;;;;3.45;92.05;99609.44;5031391;28;20052;-70
2021/11/26 10:04:20;;;;;;;50.72;16.83;;;;;;;3.54;90.27;99600.88;5018057;28;20028;-70
2021/11/26 10:06:46;;;;;;;46.15;16.75;;;;;;;3.58;90.02;99583.47;5033428;28;20044;-70
2021/11/26 10:09:15;;;;;;;37.08;15.50;;;;;;;3.53;89.61;99586.47;5032109;28;20044;-70
2021/11/26 10:11:49;;;;;;;54.72;15.90;;;;;;;3.48;88.67;99578.38;5031020;28;20065;-70
2021/11/26 10:14:18;;;;;;;42.47;14.88;;;;;;;3.44;88.64;99572.72;5008795;28;20379;-70
2021/11/26 10:16:46;;;;;;;43.25;14.05;;;;;;;3.43;87.82;99560.06;5031866;28;20033;-70
2021/11/26 10:19:12;;;;;;;47.17;15.90;;;;;;;3.45;87.81;99565.84;5023674;28;20391;-70
2021/11/26 10:21:38;;;;;;;38.97;14.07;;;;;;;3.42;87.00;99556.66;5010796;28;20064;-70
2021/11/26 10:24:13;;;;;;;43.58;14.65;;;;;;;3.37;87.55;99547.78;5024123;28;20052;-70
2021/11/26 10:26:39;;;;;;;45.33;16.08;;;;;;;3.41;87.37;99534.56;5032640;28;20399;-70
2021/11/26 10:29:05;;;;;;;40.35;13.45;;;;;;;3.54;85.98;99533.44;5009245;28;20064;-70
2021/11/26 10:31:33;;;;;;;45.28;12.63;;;;;;;3.39;85.53;99527.94;5036811;28;20059;-70
2021/11/26 10:34:04;;;;;;;33.38;11.25;;;;;;;3.49;84.00;99516.72;5037015;28;20636;-70
2021/11/26 10:36:47;;;;;;;32.67;11.02;;;;;;;3.46;84.50;99513.63;5027680;28;20585;-70
2021/11/26 10:39:16;;;;;;;33.00;10.63;;;;;;;3.46;82.13;99501.63;5031745;28;20500;-70
2021/11/26 10:41:49;;;;;;;31.52;11.05;;;;;;;3.59;82.68;99493.59;5038010;28;20048;-70
2021/11/26 10:44:16;;;;;;;27.33;10.57;;;;;;;3.62;80.86;99482.28;5035606;28;20361;-70
2021/11/26 10:49:42;;;;;;;27.05;10.38;;;;;;;3.65;81.95;99471.72;5034403;28;20113;-70
2021/11/26 10:57:41;;;;;;;23.02;8.55;;;;;;;3.62;80.42;99447.19;5024257;28;20043;-70
2021/11/26 11:00:07;;;;;;;25.05;8.52;;;;;;;3.66;79.44;99438.25;5036842;28;20132;-71
2021/11/26 11:02:47;;;;;;;26.10;7.40;;;;;;;3.72;77.23;99436.06;5034880;28;20167;-70
2021/11/26 11:05:30;;;;;;;21.80;6.80;;;;;;;3.70;76.31;99425.94;5030748;28;20068;-70
2021/11/26 11:07:57;;;;;;;26.42;7.07;;;;;;;3.64;76.97;99413.72;5021654;28;20036;-70
2021/11/26 11:10:27;;;;;;;17.33;5.22;;;;;;;3.62;75.79;99397.69;5030247;28;20412;-70
2021/11/26 11:12:53;;;;;;;13.98;5.88;;;;;;;3.74;74.91;99396.50;5031253;28;20446;-70
2021/11/26 11:15:21;;;;;;;15.32;4.70;;;;;;;3.67;74.37;99387.78;5037149;28;20030;-70
2021/11/26 11:17:48;;;;;;;18.67;5.20;;;;;;;3.82;73.43;99382.94;5027606;28;20407;-70
2021/11/26 11:20:18;;;;;;;15.63;4.88;;;;;;;3.80;73.12;99387.41;5027367;28;20032;-70
2021/11/26 11:22:45;;;;;;;22.05;4.57;;;;;;;3.87;73.63;99378.19;5029012;28;20091;-70